Time;durP1;ratioP1;P1;durP2;ratioP2;P2;SDS_P1;SDS_P2;PMS_P1;PMS_P2;Temp;Humidity;BMP_temperature;BMP_pressure;BME280_temperature;BME280_humidity;BME280_pressure;Samples;Min_cycle;Max_cycle;Signal;HPM_P1;HPM_P2
2022/11/13 00:01:20;;;;;;;23.30;17.65;;;7.60;99.90;;;;;;5050590;28;20405;-88
2022/11/13 00:03:46;;;;;;;27.65;18.95;;;7.60;99.90;;;;;;5021963;28;20053;-86
2022/11/13 00:06:14;;;;;;;24.70;18.20;;;7.60;99.90;;;;;;5050307;28;20044;-86
2022/11/13 00:08:40;;;;;;;26.15;18.05;;;7.60;99.90;;;;;;5042395;28;20557;-86
2022/11/13 00:11:09;;;;;;;28.25;18.20;;;7.60;99.90;;;;;;5042843;28;20048;-86
2022/11/13 00:13:34;;;;;;;21.58;16.73;;;8.00;99.90;;;;;;5058018;28;20048;-86
2022/11/13 00:16:06;;;;;;;20.10;17.33;;;7.60;99.90;;;;;;5042333;28;20051;-86
2022/11/13 00:18:34;;;;;;;29.65;18.50;;;7.60;99.90;;;;;;5029089;28;20095;-86
2022/11/13 00:21:08;;;;;;;25.33;17.73;;;7.60;99.90;;;;;;5021741;28;20053;-86
2022/11/13 00:23:35;;;;;;;24.20;18.05;;;7.60;99.90;;;;;;5052952;28;20037;-86
2022/11/13 00:26:06;;;;;;;23.55;18.17;;;7.60;99.90;;;;;;5023103;28;20102;-87
2022/11/13 00:28:31;;;;;;;25.77;18.27;;;7.60;99.90;;;;;;5039788;28;20052;-86
2022/11/13 00:31:01;;;;;;;26.55;17.98;;;7.60;99.90;;;;;;5039173;28;20132;-87
2022/11/13 00:33:28;;;;;;;24.13;17.75;;;7.60;99.90;;;;;;5022131;28;20103;-87
2022/11/13 00:35:53;;;;;;;27.05;17.92;;;8.10;99.90;;;;;;5056346;28;20052;-87
2022/11/13 00:38:19;;;;;;;22.75;17.02;;;9.00;99.90;;;;;;5037987;28;20120;-88
2022/11/13 00:40:44;;;;;;;22.88;17.80;;;8.80;99.90;;;;;;5038103;28;20056;-87
2022/11/13 00:43:10;;;;;;;24.33;17.65;;;8.30;99.90;;;;;;5021268;28;20036;-87
2022/11/13 00:45:36;;;;;;;23.42;17.52;;;7.90;99.90;;;;;;5037760;28;20398;-87
2022/11/13 00:48:01;;;;;;;22.23;16.88;;;7.60;99.90;;;;;;5021194;28;20041;-86
2022/11/13 00:50:27;;;;;;;26.73;18.08;;;7.60;99.90;;;;;;5037824;28;20095;-86
2022/11/13 00:52:53;;;;;;;23.02;17.40;;;8.20;99.90;;;;;;5022513;28;20127;-87
2022/11/13 00:55:18;;;;;;;21.90;17.20;;;7.60;99.90;;;;;;5033866;28;20177;-87
2022/11/13 00:57:44;;;;;;;23.23;17.35;;;7.60;99.90;;;;;;5037308;28;20163;-87
2022/11/13 01:00:10;;;;;;;24.05;17.08;;;8.20;99.90;;;;;;5021022;28;20521;-87
2022/11/13 01:02:36;;;;;;;27.60;17.27;;;7.60;99.90;;;;;;5056217;28;20080;-89
2022/11/13 01:05:02;;;;;;;22.58;17.20;;;7.60;99.90;;;;;;5048223;28;20040;-87
2022/11/13 01:07:28;;;;;;;28.17;18.15;;;8.90;99.90;;;;;;5038567;28;20080;-87
2022/11/13 01:09:54;;;;;;;22.42;17.05;;;7.60;99.90;;;;;;5054103;28;20481;-88
2022/11/13 01:12:20;;;;;;;21.05;16.85;;;7.60;99.90;;;;;;5058007;28;20101;-88
2022/11/13 01:14:45;;;;;;;23.58;17.17;;;8.70;99.90;;;;;;5057871;28;20033;-87
2022/11/13 01:17:11;;;;;;;24.90;18.00;;;7.60;99.90;;;;;;5055910;28;20059;-87
2022/11/13 01:19:37;;;;;;;22.42;17.27;;;7.60;99.90;;;;;;5040590;28;20086;-87
2022/11/13 01:22:02;;;;;;;22.17;16.75;;;7.70;99.90;;;;;;5049639;28;20077;-86
2022/11/13 01:24:28;;;;;;;22.92;17.42;;;7.70;99.90;;;;;;5039145;28;20056;-87
2022/11/13 01:26:53;;;;;;;23.45;16.95;;;7.70;99.90;;;;;;5072926;28;20537;-87
2022/11/13 01:29:19;;;;;;;23.05;17.30;;;7.70;99.90;;;;;;5068937;28;20451;-87
2022/11/13 01:31:45;;;;;;;20.90;15.77;;;7.70;99.90;;;;;;5037906;28;20055;-86
2022/11/13 01:34:10;;;;;;;21.52;16.40;;;9.00;99.90;;;;;;5056496;28;20033;-86
2022/11/13 01:36:36;;;;;;;21.55;15.27;;;8.90;99.90;;;;;;5037446;28;20056;-87
2022/11/13 01:39:02;;;;;;;21.30;16.20;;;7.70;99.90;;;;;;5036984;28;20080;-87
2022/11/13 01:41:30;;;;;;;22.60;17.35;;;7.80;99.90;;;;;;5025406;28;20043;-87
2022/11/13 01:43:57;;;;;;;22.10;16.52;;;8.90;99.90;;;;;;5056327;28;20087;-87
2022/11/13 01:46:34;;;;;;;21.63;16.52;;;7.80;99.90;;;;;;5056501;28;20063;-86
2022/11/13 01:49:14;;;;;;;23.27;16.98;;;7.80;99.90;;;;;;5056661;28;20064;-86
2022/11/13 01:51:42;;;;;;;23.58;17.25;;;7.70;99.90;;;;;;5039774;28;20040;-86
2022/11/13 01:54:12;;;;;;;24.80;17.50;;;7.70;99.90;;;;;;5056007;28;20469;-87
2022/11/13 01:56:39;;;;;;;22.23;17.23;;;8.00;99.90;;;;;;5055827;28;20051;-86
2022/11/13 01:59:13;;;;;;;24.40;17.10;;;8.80;99.90;;;;;;5043297;28;20033;-87
2022/11/13 02:01:40;;;;;;;28.17;17.55;;;7.70;99.90;;;;;;5017817;28;20080;-86
2022/11/13 02:04:06;;;;;;;21.25;17.38;;;8.10;99.90;;;;;;5016883;28;20042;-87
2022/11/13 02:06:44;;;;;;;23.85;17.05;;;7.80;99.90;;;;;;5000901;28;20103;-86
2022/11/13 02:09:11;;;;;;;23.73;17.17;;;8.30;99.90;;;;;;4999393;28;20041;-86
2022/11/13 02:11:37;;;;;;;23.02;16.80;;;7.80;99.90;;;;;;4999788;28;20045;-87
2022/11/13 02:14:04;;;;;;;24.52;18.10;;;8.60;99.90;;;;;;5016353;28;20128;-86
2022/11/13 02:16:33;;;;;;;24.60;17.05;;;8.30;99.90;;;;;;5000054;28;20461;-87
2022/11/13 02:19:01;;;;;;;22.83;16.50;;;7.90;99.90;;;;;;5013181;28;20054;-86
2022/11/13 02:21:34;;;;;;;23.13;16.45;;;7.80;99.90;;;;;;5035661;28;20123;-86
2022/11/13 02:24:12;;;;;;;21.70;16.92;;;7.80;99.90;;;;;;5035908;28;20118;-87
2022/11/13 02:26:38;;;;;;;23.58;16.50;;;8.00;99.90;;;;;;5034758;28;20048;-86
2022/11/13 02:29:04;;;;;;;21.50;16.75;;;8.40;99.90;;;;;;5033576;28;20063;-87
2022/11/13 02:31:30;;;;;;;21.00;16.63;;;8.60;99.90;;;;;;5035032;28;20052;-86
2022/11/13 02:33:56;;;;;;;19.70;16.05;;;7.80;99.90;;;;;;5017412;28;20041;-87
2022/11/13 02:36:24;;;;;;;21.35;15.88;;;7.80;99.90;;;;;;5033565;28;20037;-86
2022/11/13 02:38:51;;;;;;;20.08;15.77;;;8.60;99.90;;;;;;5026736;28;20040;-86
2022/11/13 02:41:17;;;;;;;21.30;16.50;;;8.40;99.90;;;;;;5020565;28;20379;-87
2022/11/13 02:43:43;;;;;;;21.13;16.10;;;7.80;99.90;;;;;;5019470;28;20056;-86
2022/11/13 02:46:08;;;;;;;22.10;17.00;;;7.80;99.90;;;;;;5000407;28;20085;-86
2022/11/13 02:48:34;;;;;;;22.60;16.80;;;7.80;99.90;;;;;;5000768;28;20051;-86
2022/11/13 02:51:00;;;;;;;21.75;15.40;;;8.40;99.90;;;;;;5015648;28;20128;-86
2022/11/13 02:53:25;;;;;;;20.10;15.70;;;7.80;99.90;;;;;;4999153;28;20095;-86
2022/11/13 02:55:51;;;;;;;18.95;14.77;;;7.70;99.90;;;;;;5014530;28;20072;-86
2022/11/13 02:58:17;;;;;;;19.92;14.90;;;7.80;99.90;;;;;;5053219;28;20072;-87
2022/11/13 03:00:42;;;;;;;22.92;15.48;;;7.80;99.90;;;;;;5032105;28;20555;-86
2022/11/13 03:03:08;;;;;;;21.52;15.20;;;8.60;99.90;;;;;;5038411;28;20105;-86
2022/11/13 03:05:33;;;;;;;21.73;16.08;;;7.80;99.90;;;;;;5054900;28;20048;-86
2022/11/13 03:07:59;;;;;;;22.33;15.75;;;7.80;99.90;;;;;;5038892;28;20056;-86
2022/11/13 03:10:25;;;;;;;18.75;15.05;;;7.70;99.90;;;;;;5054522;28;20051;-86
2022/11/13 03:12:50;;;;;;;21.67;16.15;;;9.20;99.90;;;;;;5053813;28;20041;-86
2022/11/13 03:15:16;;;;;;;20.25;16.13;;;8.30;99.90;;;;;;5033754;28;20041;-86
2022/11/13 03:17:42;;;;;;;22.10;16.40;;;7.80;99.90;;;;;;5017484;28;20041;-85
2022/11/13 03:20:08;;;;;;;20.83;16.63;;;7.80;99.90;;;;;;5035113;28;20107;-86
2022/11/13 03:22:34;;;;;;;21.80;16.67;;;7.80;99.90;;;;;;5035182;28;20044;-85
2022/11/13 03:24:59;;;;;;;27.02;19.80;;;8.50;99.90;;;;;;5036564;28;20048;-86
2022/11/13 03:27:25;;;;;;;25.30;18.70;;;7.80;99.90;;;;;;5035880;28;20490;-86
2022/11/13 03:29:50;;;;;;;23.85;17.75;;;8.20;99.90;;;;;;5018940;28;20051;-86
2022/11/13 03:32:16;;;;;;;24.27;17.25;;;7.70;99.90;;;;;;5033583;28;20045;-87
2022/11/13 03:34:42;;;;;;;23.42;17.75;;;7.80;99.90;;;;;;5038705;28;20041;-87
2022/11/13 03:37:07;;;;;;;24.65;17.67;;;7.80;99.90;;;;;;5038374;28;20044;-86
2022/11/13 03:39:33;;;;;;;23.92;16.45;;;8.80;99.90;;;;;;5038406;28;20101;-86
2022/11/13 03:41:59;;;;;;;22.23;16.27;;;8.80;99.90;;;;;;5050094;28;20094;-86
2022/11/13 03:44:24;;;;;;;19.85;14.82;;;7.80;99.90;;;;;;5021949;28;20040;-87
2022/11/13 03:46:50;;;;;;;21.00;15.45;;;7.70;99.90;;;;;;5020502;28;20067;-86
2022/11/13 03:49:15;;;;;;;20.05;15.02;;;7.70;99.90;;;;;;5035154;28;20037;-87
2022/11/13 03:51:41;;;;;;;20.20;15.20;;;8.70;99.90;;;;;;5018155;28;20041;-87
2022/11/13 03:54:07;;;;;;;20.17;15.27;;;7.60;99.90;;;;;;5043293;28;20102;-86
2022/11/13 03:56:32;;;;;;;19.90;15.02;;;7.60;99.90;;;;;;5061012;28;20375;-87
2022/11/13 03:58:58;;;;;;;22.45;14.95;;;7.70;99.90;;;;;;5038122;28;20049;-87
2022/11/13 04:01:24;;;;;;;22.88;15.85;;;7.50;99.90;;;;;;5036184;28;20076;-86
2022/11/13 04:03:49;;;;;;;19.63;14.55;;;8.70;99.90;;;;;;5028421;28;20045;-86
2022/11/13 04:06:16;;;;;;;25.00;15.35;;;7.70;99.90;;;;;;5055304;28;20520;-87
2022/11/13 04:08:42;;;;;;;20.63;15.88;;;8.10;99.90;;;;;;5041548;28;20029;-86
2022/11/13 04:11:09;;;;;;;19.15;15.40;;;8.40;99.90;;;;;;5018360;28;20052;-86
2022/11/13 04:13:35;;;;;;;18.77;15.00;;;8.50;99.90;;;;;;5034346;28;20398;-87
2022/11/13 04:16:00;;;;;;;20.15;14.75;;;7.70;99.90;;;;;;5034199;28;20079;-86
2022/11/13 04:18:26;;;;;;;21.27;15.10;;;8.20;99.90;;;;;;5034962;28;20397;-86
2022/11/13 04:20:57;;;;;;;20.17;15.23;;;7.80;99.90;;;;;;5019892;28;20437;-86
2022/11/13 04:23:23;;;;;;;21.55;15.25;;;7.50;99.90;;;;;;5037662;28;20077;-86
2022/11/13 04:25:49;;;;;;;19.35;14.80;;;8.30;99.90;;;;;;5036954;28;20083;-86
2022/11/13 04:28:14;;;;;;;20.55;15.13;;;8.20;99.90;;;;;;5037709;28;20095;-86
2022/11/13 04:30:40;;;;;;;21.10;14.57;;;8.10;99.90;;;;;;5038127;28;20041;-86
2022/11/13 04:33:06;;;;;;;20.13;15.15;;;8.20;99.90;;;;;;5037945;28;20040;-86
2022/11/13 04:35:32;;;;;;;18.10;14.50;;;8.60;99.90;;;;;;5038747;28;20040;-86
2022/11/13 04:37:57;;;;;;;19.88;15.63;;;7.60;99.90;;;;;;5054794;28;20048;-86
2022/11/13 04:40:23;;;;;;;20.23;14.80;;;8.10;99.90;;;;;;5058161;28;20040;-86
2022/11/13 04:42:48;;;;;;;19.35;15.05;;;8.30;99.90;;;;;;5040792;28;20091;-87
2022/11/13 04:45:19;;;;;;;20.67;15.05;;;8.50;99.90;;;;;;5057560;28;20055;-86
2022/11/13 04:47:45;;;;;;;22.40;14.63;;;7.60;99.90;;;;;;5040790;28;20051;-86
2022/11/13 04:50:12;;;;;;;19.13;14.60;;;7.50;99.90;;;;;;5040902;28;20041;-87
2022/11/13 04:52:38;;;;;;;19.83;14.57;;;7.40;99.90;;;;;;5038751;28;20555;-86
2022/11/13 04:55:05;;;;;;;19.80;14.93;;;7.40;99.90;;;;;;5038960;28;20083;-86
2022/11/13 04:57:31;;;;;;;20.05;15.15;;;7.40;99.90;;;;;;5026504;28;20056;-86
2022/11/13 04:59:56;;;;;;;22.27;14.90;;;7.70;99.90;;;;;;5037502;28;20057;-85
2022/11/13 05:02:22;;;;;;;22.35;16.23;;;7.40;99.90;;;;;;5038250;28;20096;-85
2022/11/13 05:04:48;;;;;;;20.30;14.25;;;7.40;99.90;;;;;;5021468;28;20048;-86
2022/11/13 05:07:14;;;;;;;19.10;14.93;;;8.10;99.90;;;;;;5037368;28;20137;-86
2022/11/13 05:09:40;;;;;;;19.35;15.40;;;7.40;99.90;;;;;;5054929;28;20041;-86
2022/11/13 05:12:06;;;;;;;21.20;15.48;;;7.30;99.90;;;;;;5037325;28;20063;-86
2022/11/13 05:14:37;;;;;;;21.17;14.90;;;7.30;99.90;;;;;;5061091;28;20037;-86
2022/11/13 05:17:03;;;;;;;20.38;14.77;;;7.30;99.90;;;;;;5040473;28;20072;-86
2022/11/13 05:19:29;;;;;;;20.75;14.98;;;7.30;99.90;;;;;;5057743;28;20044;-85
2022/11/13 05:21:54;;;;;;;20.02;14.57;;;7.30;99.90;;;;;;5041568;28;20044;-86
2022/11/13 05:24:20;;;;;;;19.02;15.18;;;7.30;99.90;;;;;;5057299;28;20075;-86
2022/11/13 05:26:45;;;;;;;18.30;14.60;;;8.70;99.90;;;;;;5040223;28;20545;-86
2022/11/13 05:29:11;;;;;;;19.10;14.88;;;7.30;99.90;;;;;;5056708;28;20131;-86
2022/11/13 05:31:37;;;;;;;18.95;14.55;;;7.20;99.90;;;;;;5055556;28;20129;-86
2022/11/13 05:34:06;;;;;;;18.85;14.82;;;7.60;99.90;;;;;;5040038;28;20036;-86
2022/11/13 05:36:32;;;;;;;20.20;14.60;;;7.20;99.90;;;;;;5036874;28;20375;-85
2022/11/13 05:38:58;;;;;;;19.13;14.48;;;8.10;99.90;;;;;;5020398;28;20041;-86
2022/11/13 05:41:23;;;;;;;22.05;15.68;;;7.80;99.90;;;;;;5037640;28;20052;-86
2022/11/13 05:43:49;;;;;;;17.83;14.38;;;7.10;99.90;;;;;;5020180;28;20076;-85
2022/11/13 05:46:21;;;;;;;19.45;14.18;;;8.00;99.90;;;;;;5019417;28;20045;-86
2022/11/13 05:48:50;;;;;;;20.05;15.43;;;7.10;99.90;;;;;;5053639;28;20032;-85
2022/11/13 05:51:18;;;;;;;21.88;15.15;;;7.80;99.90;;;;;;5056386;28;20123;-86
2022/11/13 05:53:44;;;;;;;18.45;14.15;;;7.50;99.90;;;;;;5040846;28;20044;-86
2022/11/13 05:56:16;;;;;;;21.98;15.07;;;8.20;99.90;;;;;;5037429;28;20041;-86
2022/11/13 05:58:43;;;;;;;19.52;14.27;;;7.70;99.90;;;;;;5020565;28;20375;-86
2022/11/13 06:01:13;;;;;;;18.25;13.68;;;7.40;99.90;;;;;;5036055;28;20111;-86
2022/11/13 06:03:39;;;;;;;17.77;14.05;;;6.90;99.90;;;;;;5021119;28;20122;-86
2022/11/13 06:06:07;;;;;;;20.23;14.07;;;7.50;99.90;;;;;;5042946;28;20115;-87
2022/11/13 06:08:34;;;;;;;19.55;14.48;;;8.20;99.90;;;;;;5039905;28;20041;-86
2022/11/13 06:11:05;;;;;;;21.55;15.15;;;7.30;99.90;;;;;;5035665;28;20436;-85
2022/11/13 06:13:31;;;;;;;21.42;14.73;;;6.90;99.90;;;;;;5030515;28;20042;-86
2022/11/13 06:16:12;;;;;;;19.85;13.77;;;8.10;99.90;;;;;;5038789;28;20059;-86
2022/11/13 06:18:39;;;;;;;20.55;14.82;;;7.60;99.90;;;;;;5036801;28;20041;-86
2022/11/13 06:21:07;;;;;;;18.38;14.93;;;7.80;99.90;;;;;;5019591;28;20048;-86
2022/11/13 06:23:35;;;;;;;20.63;15.10;;;7.50;99.90;;;;;;5043344;28;20028;-85
2022/11/13 06:26:06;;;;;;;19.48;14.73;;;6.70;99.90;;;;;;5023526;28;20126;-87
2022/11/13 06:28:33;;;;;;;18.75;14.02;;;7.80;99.90;;;;;;5021932;28;20166;-85
2022/11/13 06:31:11;;;;;;;18.63;14.57;;;7.00;99.90;;;;;;5055588;28;20040;-86
2022/11/13 06:33:37;;;;;;;19.23;14.07;;;6.60;99.90;;;;;;5039151;28;20202;-85
2022/11/13 06:36:05;;;;;;;17.50;14.70;;;7.60;99.90;;;;;;5055398;28;20542;-86
2022/11/13 06:38:32;;;;;;;20.52;14.27;;;6.50;99.90;;;;;;5048836;28;20045;-85
2022/11/13 06:40:58;;;;;;;21.33;15.65;;;6.50;99.90;;;;;;5068638;28;20112;-85
2022/11/13 06:43:24;;;;;;;20.98;15.20;;;7.40;99.90;;;;;;5067412;28;20382;-83
2022/11/13 06:45:49;;;;;;;19.92;14.60;;;6.50;99.90;;;;;;5057979;28;20091;-85
2022/11/13 06:48:15;;;;;;;19.38;13.68;;;6.90;99.90;;;;;;5027505;28;20053;-85
2022/11/13 06:50:41;;;;;;;18.05;14.23;;;6.50;99.90;;;;;;5019742;28;20067;-84
2022/11/13 06:53:06;;;;;;;20.90;14.05;;;6.60;99.90;;;;;;5040920;28;20071;-85
2022/11/13 06:55:32;;;;;;;19.15;14.05;;;6.40;99.90;;;;;;5055279;28;20056;-86
2022/11/13 06:57:58;;;;;;;19.85;13.73;;;6.40;99.90;;;;;;5054930;28;20045;-84
2022/11/13 07:00:23;;;;;;;19.40;14.38;;;6.40;99.90;;;;;;5061280;28;20061;-85
2022/11/13 07:02:49;;;;;;;21.70;14.18;;;6.40;99.90;;;;;;5053757;28;20068;-85
2022/11/13 07:05:15;;;;;;;17.17;13.73;;;6.50;99.90;;;;;;5031134;28;20439;-85
2022/11/13 07:07:41;;;;;;;18.98;13.82;;;6.40;99.90;;;;;;5015874;28;20045;-85
2022/11/13 07:10:07;;;;;;;19.02;14.18;;;6.40;99.90;;;;;;5015567;28;20093;-85
2022/11/13 07:12:33;;;;;;;21.17;14.75;;;6.40;99.90;;;;;;5015046;28;20406;-85
2022/11/13 07:14:58;;;;;;;17.40;14.35;;;6.40;99.90;;;;;;5032680;28;20041;-85
2022/11/13 07:17:24;;;;;;;19.38;14.20;;;6.50;99.90;;;;;;5015299;28;20045;-85
2022/11/13 07:19:50;;;;;;;22.48;14.50;;;6.40;99.90;;;;;;5033568;28;20095;-85
2022/11/13 07:22:15;;;;;;;19.42;14.02;;;6.50;99.90;;;;;;5040698;28;20037;-85
2022/11/13 07:24:41;;;;;;;18.77;14.18;;;6.50;99.90;;;;;;5018656;28;20091;-85
2022/11/13 07:27:07;;;;;;;18.05;13.93;;;6.50;99.90;;;;;;5034725;28;20048;-85
2022/11/13 07:29:35;;;;;;;18.60;13.43;;;6.50;99.90;;;;;;5029682;28;20527;-86
2022/11/13 07:32:00;;;;;;;18.45;13.80;;;6.60;99.90;;;;;;5026670;28;20044;-84
2022/11/13 07:34:26;;;;;;;17.63;13.55;;;6.90;99.90;;;;;;5034583;28;20540;-85
2022/11/13 07:36:52;;;;;;;18.48;13.35;;;6.60;99.90;;;;;;4999575;28;20475;-85
2022/11/13 07:39:17;;;;;;;18.38;13.65;;;6.60;99.90;;;;;;5015068;28;20038;-85
2022/11/13 07:41:43;;;;;;;16.75;13.50;;;6.60;99.90;;;;;;5015234;28;20143;-85
2022/11/13 07:44:09;;;;;;;17.73;13.18;;;8.20;99.90;;;;;;5016038;28;20033;-84
2022/11/13 07:46:34;;;;;;;17.52;12.88;;;6.70;99.90;;;;;;5032120;28;20443;-84
2022/11/13 07:49:00;;;;;;;19.45;13.70;;;6.70;99.90;;;;;;5028720;28;20052;-85
2022/11/13 07:51:26;;;;;;;17.90;13.43;;;6.60;99.90;;;;;;5025630;28;20120;-84
2022/11/13 07:53:51;;;;;;;18.00;13.35;;;6.60;99.90;;;;;;5046058;28;20049;-85
2022/11/13 07:56:17;;;;;;;16.83;13.18;;;6.60;99.90;;;;;;5052010;28;20037;-85
2022/11/13 07:58:43;;;;;;;17.95;13.20;;;7.00;99.90;;;;;;5030070;28;20034;-84
2022/11/13 08:01:10;;;;;;;18.27;13.88;;;6.70;99.90;;;;;;5037025;28;20063;-84
2022/11/13 08:03:36;;;;;;;17.35;12.98;;;6.80;99.90;;;;;;5057325;28;20080;-84
2022/11/13 08:06:06;;;;;;;17.15;12.90;;;8.30;99.90;;;;;;5057097;28;20048;-84
2022/11/13 08:08:33;;;;;;;15.68;12.57;;;7.00;99.90;;;;;;5039560;28;20049;-84
2022/11/13 08:11:03;;;;;;;17.10;12.88;;;7.10;99.90;;;;;;5039306;28;20083;-84
2022/11/13 08:13:29;;;;;;;16.77;12.13;;;7.20;99.90;;;;;;5038945;28;20067;-84
2022/11/13 08:15:57;;;;;;;15.98;12.27;;;7.40;99.90;;;;;;5058448;28;20041;-84
2022/11/13 08:18:23;;;;;;;16.48;12.00;;;8.50;99.90;;;;;;5076464;28;20036;-84
2022/11/13 08:20:49;;;;;;;15.93;11.63;;;7.60;99.90;;;;;;5059081;28;20071;-84
2022/11/13 08:23:14;;;;;;;14.70;11.75;;;7.70;99.90;;;;;;5058654;28;20063;-84
2022/11/13 08:25:40;;;;;;;16.20;11.68;;;7.90;99.90;;;;;;5073988;28;20037;-84
2022/11/13 08:28:06;;;;;;;15.45;11.25;;;8.10;99.90;;;;;;5039847;28;20053;-84
2022/11/13 08:30:32;;;;;;;14.50;11.25;;;8.20;99.90;;;;;;5038350;28;20045;-84
2022/11/13 08:32:57;;;;;;;14.10;10.82;;;8.80;99.90;;;;;;5075345;28;20041;-84
2022/11/13 08:35:23;;;;;;;12.63;10.07;;;;;;;;;;5057562;28;20537;-85
2022/11/13 08:37:49;;;;;;;12.32;9.73;;;;;;;;;;5042085;28;20045;-84
2022/11/13 08:40:15;;;;;;;12.02;8.90;;;;;;;;;;5022675;28;20040;-85
2022/11/13 08:42:41;;;;;;;14.52;8.73;;;;;;;;;;5037915;28;20454;-85
2022/11/13 08:45:08;;;;;;;13.10;8.60;;;;;;;;;;5030278;28;20060;-85
2022/11/13 08:47:34;;;;;;;10.82;8.50;;;;;;;;;;5041151;28;20088;-83
2022/11/13 08:50:00;;;;;;;12.00;7.72;;;;;;;;;;5058367;28;20051;-83
2022/11/13 08:52:26;;;;;;;9.35;8.23;;;;;;;;;;5040603;28;20091;-83
2022/11/13 08:54:53;;;;;;;10.88;8.00;;;12.10;99.90;;;;;;5055047;28;20144;-83
2022/11/13 08:57:19;;;;;;;9.60;7.68;;;27.30;97.30;;;;;;5020667;28;20040;-83
2022/11/13 08:59:45;;;;;;;10.68;7.75;;;28.50;95.80;;;;;;5037015;28;20521;-84
2022/11/13 09:02:13;;;;;;;10.07;7.32;;;29.60;93.90;;;;;;5054930;28;20103;-83
2022/11/13 09:04:39;;;;;;;11.43;7.18;;;30.10;90.70;;;;;;5020676;28;20413;-84
2022/11/13 09:07:05;;;;;;;10.15;7.35;;;30.90;88.50;;;;;;5037218;28;20094;-77
2022/11/13 09:09:30;;;;;;;8.32;6.72;;;31.40;86.50;;;;;;5055782;28;20083;-84
2022/11/13 09:11:56;;;;;;;8.98;6.90;;;32.10;84.30;;;;;;5021492;28;20102;-84
2022/11/13 09:14:23;;;;;;;8.52;6.82;;;32.80;81.80;;;;;;5036969;28;20048;-82
2022/11/13 09:16:49;;;;;;;8.82;6.90;;;33.00;78.70;;;;;;5055123;28;20049;-85
2022/11/13 09:19:15;;;;;;;9.20;7.20;;;33.20;76.40;;;;;;5022293;28;20450;-83
2022/11/13 09:21:41;;;;;;;9.18;6.88;;;33.30;75.60;;;;;;5037051;28;20438;-83
2022/11/13 09:24:07;;;;;;;10.65;7.30;;;32.70;74.00;;;;;;5037441;28;20047;-83
2022/11/13 09:26:34;;;;;;;9.30;7.20;;;31.90;73.70;;;;;;5036516;28;20083;-83
2022/11/13 09:29:00;;;;;;;9.82;6.72;;;31.00;74.20;;;;;;5036487;28;20041;-83
2022/11/13 09:31:25;;;;;;;8.68;6.88;;;29.90;74.60;;;;;;5036436;28;20071;-83
2022/11/13 09:33:51;;;;;;;9.23;6.82;;;28.90;76.30;;;;;;5049991;28;20036;-81
2022/11/13 09:36:17;;;;;;;9.02;7.10;;;27.10;76.10;;;;;;5054642;28;20051;-83
2022/11/13 09:38:43;;;;;;;8.65;6.90;;;26.10;77.20;;;;;;5075189;28;20040;-83
2022/11/13 09:41:12;;;;;;;10.80;7.47;;;25.50;79.10;;;;;;5057209;28;20202;-87
2022/11/13 09:43:44;;;;;;;10.40;7.18;;;26.00;79.70;;;;;;5040797;28;20371;-87
2022/11/13 09:46:30;;;;;;;10.50;7.00;;;26.00;79.50;;;;;;5039980;28;20048;-86
2022/11/13 09:48:58;;;;;;;9.15;7.40;;;;;;;;;;5056185;28;20044;-86
2022/11/13 09:51:27;;;;;;;11.00;7.40;;;;;;;;;;5041735;28;20072;-89
2022/11/13 09:53:53;;;;;;;8.32;6.75;;;;;;;;;;5021806;28;20041;-89
2022/11/13 09:56:38;;;;;;;9.40;7.72;;;;;;;;;;5020882;28;20084;-90
2022/11/13 09:59:21;;;;;;;9.43;6.93;;;;;;;;;;5040867;28;20409;-90
2022/11/13 10:01:48;;;;;;;8.82;7.22;;;;;;;;;;5005082;28;20056;-94
2022/11/13 10:04:15;;;;;;;9.68;7.55;;;;;;;;;;5006568;28;20048;-87
2022/11/13 10:06:59;;;;;;;8.98;6.72;;;;;;;;;;5029629;28;20118;-92
2022/11/13 10:09:49;;;;;;;8.65;7.07;;;;;;;;;;5016102;28;20124;-88
2022/11/13 10:12:15;;;;;;;8.18;6.57;;;;;;;;;;5038058;28;20041;-91
2022/11/13 10:14:45;;;;;;;7.88;7.05;;;;;;;;;;5038285;28;20394;-91
2022/11/13 10:17:21;;;;;;;9.00;7.38;;;;;;;;;;5019630;28;20045;-84
2022/11/13 10:20:09;;;;;;;8.98;6.72;;;;;;;;;;5050452;28;20056;-84
2022/11/13 10:22:59;;;;;;;9.52;7.28;;;;;;;;;;5032502;28;20091;-84
2022/11/13 10:25:31;;;;;;;11.13;7.18;;;;;;;;;;4988100;28;20057;-82
2022/11/13 10:28:01;;;;;;;9.82;7.05;;;;;;;;;;5017313;28;20049;-84
2022/11/13 10:30:28;;;;;;;8.35;6.63;;;;;;;;;;5019288;28;20049;-84
2022/11/13 10:33:01;;;;;;;8.15;7.07;;;;;;;;;;5033996;28;20045;-84
2022/11/13 10:35:44;;;;;;;9.68;7.07;;;;;;;;;;5000683;28;20478;-84
2022/11/13 10:38:29;;;;;;;9.23;7.18;;;;;;;;;;5016353;28;20133;-84
2022/11/13 10:41:11;;;;;;;9.52;6.65;;;;;;;;;;5015928;28;20049;-83
2022/11/13 10:43:55;;;;;;;8.30;6.88;;;;;;;;;;5001725;28;20437;-85
2022/11/13 10:46:23;;;;;;;9.38;6.93;;;;;;;;;;5032749;28;20041;-83
2022/11/13 10:48:49;;;;;;;8.55;6.50;;;;;;;;;;5032749;28;20090;-82
2022/11/13 10:51:24;;;;;;;7.80;6.40;;;;;;;;;;5018131;28;20055;-82
2022/11/13 10:53:51;;;;;;;8.35;6.28;;;;;;;;;;4998785;28;20046;-84
2022/11/13 10:56:33;;;;;;;11.75;6.70;;;;;;;;;;5000531;28;20362;-82
2022/11/13 10:59:16;;;;;;;10.07;6.43;;;;;;;;;;5006177;28;20045;-83
2022/11/13 11:01:43;;;;;;;8.50;6.32;;;;;;;;;;5013175;28;20124;-83
2022/11/13 11:04:18;;;;;;;8.77;6.18;;;;;;;;;;4997984;28;20482;-83
2022/11/13 11:06:45;;;;;;;8.73;6.80;;;;;;;;;;5012587;28;20191;-83
2022/11/13 11:09:28;;;;;;;9.52;6.63;;;;;;;;;;5018684;28;20099;-86
2022/11/13 11:12:17;;;;;;;10.05;6.65;;;;;;;;;;5037479;28;20076;-86
2022/11/13 11:14:47;;;;;;;9.73;6.60;;;;;;;;;;4999158;28;20053;-86
2022/11/13 11:17:16;;;;;;;8.35;7.05;;;;;;;;;;4998944;28;20046;-86
2022/11/13 11:19:44;;;;;;;9.05;6.30;;;;;;;;;;4998510;28;20508;-86
2022/11/13 11:22:15;;;;;;;8.02;6.30;;;;;;;;;;5017115;28;20069;-84
2022/11/13 11:24:44;;;;;;;7.40;6.30;;;;;;;;;;5011355;28;20049;-86
2022/11/13 11:27:14;;;;;;;9.52;6.82;;;;;;;;;;5031080;28;20051;-86
2022/11/13 11:29:40;;;;;;;9.25;6.68;;;;;;;;;;5016229;28;20046;-86
2022/11/13 11:32:06;;;;;;;8.20;6.45;;;;;;;;;;5018542;28;20132;-86
2022/11/13 11:34:32;;;;;;;8.32;6.43;;;;;;;;;;5004995;28;20037;-87
2022/11/13 11:37:05;;;;;;;8.82;6.43;;;;;;;;;;5036172;28;20072;-86
2022/11/13 11:39:35;;;;;;;8.45;6.10;;;;;;;;;;5038913;28;20389;-85
2022/11/13 11:42:13;;;;;;;7.97;6.68;;;;;;;;;;5022320;28;20138;-86
2022/11/13 11:44:58;;;;;;;8.00;6.30;;;;;;;;;;5023286;28;20051;-85
2022/11/13 11:47:24;;;;;;;8.85;6.55;;;;;;;;;;5022160;28;20084;-85
2022/11/13 11:49:50;;;;;;;7.80;6.53;;;;;;;;;;5037436;28;20128;-86
2022/11/13 11:52:45;;;;;;;7.38;6.43;;;;;;;;;;5020127;28;20049;-85
2022/11/13 11:55:27;;;;;;;8.07;6.45;;;;;;;;;;5001365;28;20053;-86
2022/11/13 11:58:14;;;;;;;9.07;6.68;;;25.70;80.60;;;;;;5056306;28;20522;-85
2022/11/13 12:00:49;;;;;;;12.13;6.70;;;25.30;87.60;;;;;;5032135;28;20123;-85
2022/11/13 12:03:39;;;;;;;8.93;6.32;;;25.80;85.40;;;;;;5055304;28;20049;-85
2022/11/13 12:06:24;;;;;;;8.02;6.50;;;26.40;83.80;;;;;;5038125;28;20116;-85
2022/11/13 12:09:02;;;;;;;7.97;6.38;;;26.60;83.70;;;;;;5035154;28;20132;-85
2022/11/13 12:11:34;;;;;;;8.30;6.47;;;26.90;82.70;;;;;;5034085;28;20506;-85
2022/11/13 12:14:34;;;;;;;8.38;6.53;;;27.70;82.60;;;;;;5017503;28;20052;-85
2022/11/13 12:17:17;;;;;;;9.48;6.03;;;28.50;82.40;;;;;;5018037;28;20475;-85
2022/11/13 12:19:52;;;;;;;8.85;5.95;;;29.00;80.20;;;;;;5034591;28;20476;-85
2022/11/13 12:22:42;;;;;;;8.63;6.68;;;29.90;79.40;;;;;;5034026;28;20052;-85
2022/11/13 12:25:32;;;;;;;8.75;6.40;;;30.50;77.30;;;;;;5034337;28;20108;-85
2022/11/13 12:28:23;;;;;;;8.13;6.47;;;30.20;76.20;;;;;;5034153;28;20046;-85
2022/11/13 12:30:51;;;;;;;8.13;5.90;;;30.10;76.60;;;;;;5035106;28;20393;-85
2022/11/13 12:33:22;;;;;;;7.07;5.60;;;30.10;74.40;;;;;;5035126;28;20103;-85
2022/11/13 12:35:50;;;;;;;8.18;5.95;;;;;;;;;;5017681;28;20045;-86
2022/11/13 12:38:42;;;;;;;8.70;6.10;;;29.80;73.80;;;;;;5017640;28;20076;-86
2022/11/13 12:41:31;;;;;;;8.20;6.00;;;28.90;74.00;;;;;;5016798;28;20140;-86
2022/11/13 12:44:14;;;;;;;9.32;5.82;;;27.60;75.40;;;;;;5034046;28;20049;-85
2022/11/13 12:46:41;;;;;;;8.02;6.13;;;26.50;77.80;;;;;;5035147;28;20037;-85
2022/11/13 12:49:22;;;;;;;7.82;6.28;;;26.00;78.50;;;;;;5018546;28;20133;-86
2022/11/13 12:52:14;;;;;;;8.63;6.15;;;25.70;79.30;;;;;;5018011;28;20050;-85
2022/11/13 12:54:40;;;;;;;8.48;6.35;;;25.50;80.40;;;;;;5034277;28;20051;-85
2022/11/13 12:57:11;;;;;;;10.55;6.55;;;25.40;80.80;;;;;;5017464;28;20405;-85
2022/11/13 12:59:42;;;;;;;8.07;6.10;;;25.30;80.90;;;;;;5032377;28;20057;-86
2022/11/13 13:02:08;;;;;;;9.07;7.10;;;;;;;;;;5017082;28;20080;-84
2022/11/13 13:04:40;;;;;;;7.80;6.22;;;;;;;;;;5016804;28;20049;-85
2022/11/13 13:07:25;;;;;;;9.48;6.75;;;;;;;;;;5016736;28;20111;-86
2022/11/13 13:10:09;;;;;;;7.63;6.67;;;;;;;;;;5034210;28;20462;-85